Terminal Aerodrome Forecast
Issued by NWS Charleston, WV

Current Version | Previous Version | Text Only | Print | Product List | Glossary Off
Versions: 1 2 3 4 5 6 7 8 9 10 11 12 13 14 15 16 17 18 19 20 21

000
FTUS41 KRLX 161700 RRA
TAFPKB
TAF
KPKB 161745Z 1618/1718 23012G24KT P6SM OVC025
     FM162000 23011G20KT 6SM -DZ BR OVC016
     FM170400 24010G16KT 6SM BR OVC010
     FM170900 25009KT P6SM OVC010
     FM171500 26010G17KT P6SM OVC016=

USA.gov is the U.S. government's official web portal to all federal, state and local government web resources and services.